Minneapolis, Minnesota
Current Conditions -  °F | °C
As of 2:23 AM on Monday 22 Dec 2014 (Local Time) from KMSP Reporting Station
Haze Haze  
Wind Chill: -1°   Ceiling: 600
Heat Index:   Visibility: 2.5mi
Dew Point:   Wind: 14mph
Humidity: 93%   Direction: 150°SSE
Pressure: 29.7"   Gusts: NA
Location:  44.98°N, 93.26°W
Report Text: KMSP 220823Z 15012KT 2 1/2SM BR OVC006 03/02 A2970 RMK AO2 RAE0759 P0000 T00330022 $
Loading
Personal Weather Stations






























Interactive Weather Map New forecast layout! Learn more

10-Day Weather Forecast

Advertisements
Track Severe Weather on mobile